Time;durP1;ratioP1;P1;durP2;ratioP2;P2;SDS_P1;SDS_P2;PMS_P1;PMS_P2;Temp;Humidity;BMP_temperature;BMP_pressure;BME280_temperature;BME280_humidity;BME280_pressure;Samples;Min_cycle;Max_cycle;Signal;HPM_P1;HPM_P2
2021/11/19 00:00:27;;;;;;;1.30;0.57;;;;;;;22.26;40.59;101817.72;4420532;32;20733;-72
2021/11/19 00:02:53;;;;;;;4.62;0.88;;;;;;;22.44;40.26;101814.66;4420695;32;20045;-72
2021/11/19 00:05:20;;;;;;;3.33;0.70;;;;;;;21.90;41.23;101820.94;4420461;32;20396;-72
2021/11/19 00:07:46;;;;;;;4.15;0.57;;;;;;;22.07;41.04;101819.22;4421222;32;20034;-72
2021/11/19 00:10:12;;;;;;;1.80;0.90;;;;;;;22.06;41.05;101823.34;4422549;32;20061;-72
2021/11/19 00:12:37;;;;;;;4.25;0.70;;;;;;;22.20;40.77;101821.78;4418962;32;20434;-72
2021/11/19 00:15:05;;;;;;;3.80;0.88;;;;;;;21.98;41.34;101829.97;4418244;32;20061;-71
2021/11/19 00:17:31;;;;;;;2.85;1.00;;;;;;;21.61;42.28;101824.53;4417662;32;20078;-71
2021/11/19 00:19:56;;;;;;;1.05;0.50;;;;;;;21.83;41.86;101829.13;4418953;32;20048;-72
2021/11/19 00:22:22;;;;;;;1.08;0.60;;;;;;;21.76;42.13;101820.91;4418764;32;20115;-72
2021/11/19 00:24:48;;;;;;;3.10;0.80;;;;;;;21.57;42.39;101818.16;4420375;32;20435;-72
2021/11/19 00:27:18;;;;;;;4.12;0.68;;;;;;;21.82;41.93;101810.38;4422729;32;21064;-72
2021/11/19 00:29:44;;;;;;;1.48;0.43;;;;;;;21.80;42.02;101818.66;4418024;32;20077;-72
2021/11/19 00:32:11;;;;;;;4.53;0.70;;;;;;;21.93;41.48;101808.50;4419230;32;20555;-72
2021/11/19 00:34:39;;;;;;;3.67;0.75;;;;;;;21.16;42.97;101810.50;4419321;32;20484;-72
2021/11/19 00:37:05;;;;;;;3.62;0.70;;;;;;;21.79;41.79;101802.75;4418564;32;21519;-72
2021/11/19 00:39:32;;;;;;;2.12;0.70;;;;;;;21.74;41.70;101800.56;4421333;32;20103;-72
2021/11/19 00:41:59;;;;;;;4.72;0.70;;;;;;;21.18;42.66;101810.03;4423564;32;20022;-72
2021/11/19 00:44:26;;;;;;;3.05;0.77;;;;;;;21.45;42.48;101804.88;4420960;32;20042;-72
2021/11/19 00:46:53;;;;;;;3.65;1.77;;;;;;;21.14;43.24;101803.69;4420247;32;20113;-71
2021/11/19 00:49:24;;;;;;;1.60;0.70;;;;;;;21.79;41.88;101803.56;4416573;32;20133;-72
2021/11/19 00:51:54;;;;;;;2.78;0.70;;;;;;;21.81;41.82;101803.06;4418537;32;20065;-72
2021/11/19 00:54:20;;;;;;;4.22;0.70;;;;;;;21.88;41.73;101803.47;4420858;32;20046;-72
2021/11/19 00:56:51;;;;;;;2.70;0.85;;;;;;;21.48;42.18;101792.47;4408159;32;20078;-72
2021/11/19 00:59:20;;;;;;;2.00;0.75;;;;;;;21.70;41.94;101795.00;4421792;32;20092;-72
2021/11/19 01:01:52;;;;;;;2.70;0.70;;;;;;;21.86;41.52;101805.22;4407833;32;20086;-72
2021/11/19 01:04:20;;;;;;;2.17;0.85;;;;;;;21.83;41.27;101803.34;4417867;32;20428;-72
2021/11/19 01:06:46;;;;;;;5.12;0.77;;;;;;;21.73;41.37;101796.88;4419898;32;20960;-72
2021/11/19 01:09:17;;;;;;;1.33;0.62;;;;;;;21.61;41.47;101793.00;4419263;32;20553;-72
2021/11/19 01:11:45;;;;;;;4.97;0.93;;;;;;;21.65;41.39;101805.06;4421153;32;20442;-72
2021/11/19 01:14:17;;;;;;;4.22;0.98;;;;;;;21.58;41.60;101808.31;4422078;32;20018;-72
2021/11/19 01:16:47;;;;;;;6.68;0.68;;;;;;;21.85;41.09;101807.31;4416990;32;20100;-72
2021/11/19 01:19:18;;;;;;;2.90;0.80;;;;;;;21.79;41.38;101817.88;4420049;32;20065;-72
2021/11/19 01:21:50;;;;;;;2.90;0.90;;;;;;;21.41;42.10;101810.00;4419680;32;20077;-72
2021/11/19 01:24:16;;;;;;;3.75;0.70;;;;;;;21.38;42.28;101818.78;4418290;32;20088;-71
2021/11/19 01:26:43;;;;;;;5.43;0.98;;;;;;;21.30;42.17;101812.63;4420904;32;20360;-71
2021/11/19 01:29:13;;;;;;;2.22;0.73;;;;;;;21.47;41.67;101801.53;4407619;32;20096;-72
2021/11/19 01:31:43;;;;;;;4.03;0.88;;;;;;;21.41;42.10;101815.75;4421076;32;20069;-72
2021/11/19 01:34:10;;;;;;;2.83;0.88;;;;;;;21.58;41.58;101801.78;4421182;32;20068;-72
2021/11/19 01:36:36;;;;;;;3.25;0.80;;;;;;;21.84;41.08;101797.13;4419095;32;20170;-72
2021/11/19 01:39:06;;;;;;;2.40;0.90;;;;;;;21.67;41.40;101788.16;4419692;32;20069;-72
2021/11/19 01:41:36;;;;;;;2.83;0.70;;;;;;;21.61;41.77;101795.87;4417155;32;20026;-72
2021/11/19 01:44:13;;;;;;;7.30;0.88;;;;;;;21.39;42.32;101786.78;4419531;32;20115;-72
2021/11/19 01:46:42;;;;;;;3.00;0.70;;;;;;;21.81;41.20;101785.87;4418415;32;20453;-72
2021/11/19 01:49:08;;;;;;;3.70;0.93;;;;;;;21.88;41.24;101791.22;4418306;32;20054;-71
2021/11/19 01:51:44;;;;;;;3.65;0.95;;;;;;;21.33;42.14;101793.69;4417649;32;20392;-72
2021/11/19 01:54:16;;;;;;;2.00;0.60;;;;;;;21.31;42.06;101794.19;4421788;32;20061;-71
2021/11/19 01:56:50;;;;;;;5.07;0.80;;;;;;;21.54;41.75;101787.62;4420518;32;20519;-72
2021/11/19 01:59:24;;;;;;;2.87;0.85;;;;;;;21.56;41.72;101805.12;4421851;32;20095;-71
2021/11/19 02:01:58;;;;;;;3.53;0.80;;;;;;;21.34;41.97;101804.66;4419382;32;20069;-72
2021/11/19 02:04:30;;;;;;;5.15;1.15;;;;;;;21.28;41.97;101803.75;4420045;32;20041;-71
2021/11/19 02:07:20;;;;;;;3.65;0.80;;;;;;;21.26;42.09;101803.44;4419281;32;20526;-71
2021/11/19 02:13:02;;;;;;;1.90;0.40;;;;;;;21.80;40.81;101807.19;3951976;32;15850524;-72
2021/11/19 02:15:33;;;;;;;2.43;0.67;;;;;;;21.80;40.81;101807.19;4435330;32;20065;-72
2021/11/19 02:18:07;;;;;;;4.85;1.10;;;;;;;21.13;41.72;101807.81;4432006;32;20402;-72
2021/11/19 02:20:38;;;;;;;5.53;0.65;;;;;;;21.23;41.56;101803.63;4435069;32;20077;-72
2021/11/19 02:23:11;;;;;;;2.75;0.62;;;;;;;21.23;41.70;101801.53;4432675;32;20138;-72
2021/11/19 02:25:43;;;;;;;2.33;0.60;;;;;;;21.43;41.11;101793.16;4437138;32;20446;-72
2021/11/19 02:28:16;;;;;;;2.05;0.65;;;;;;;21.41;41.09;101798.56;4433139;32;20292;-72
2021/11/19 02:33:19;;;;;;;2.37;0.40;;;;;;;21.68;40.50;101792.63;3956149;32;15723637;-72
2021/11/19 02:35:53;;;;;;;3.15;0.60;;;;;;;21.68;40.50;101792.63;4433448;32;20097;-72
2021/11/19 02:38:21;;;;;;;2.10;0.50;;;;;;;21.46;40.66;101800.75;4431826;32;20354;-72
2021/11/19 02:40:52;;;;;;;3.03;0.70;;;;;;;21.13;41.18;101799.22;4434094;32;20081;-71
2021/11/19 02:43:25;;;;;;;3.55;0.70;;;;;;;21.37;40.81;101779.97;4432123;32;20395;-71
2021/11/19 02:45:52;;;;;;;3.50;0.50;;;;;;;21.10;nan;101785.87;4434699;32;20081;-72
2021/11/19 02:48:22;;;;;;;1.70;0.35;;;;;;;21.32;40.62;101792.09;4429295;32;20073;-72
2021/11/19 02:50:50;;;;;;;1.30;0.50;;;;;;;21.13;41.15;101785.72;4434543;32;20459;-72
2021/11/19 02:53:17;;;;;;;3.58;0.60;;;;;;;21.01;41.41;101783.06;4432732;32;20059;-72
2021/11/19 02:55:46;;;;;;;2.28;0.50;;;;;;;21.34;40.61;101787.47;4436143;32;20060;-71
2021/11/19 02:58:17;;;;;;;2.22;0.88;;;;;;;21.38;40.73;101787.28;4434198;32;20081;-72
2021/11/19 03:00:49;;;;;;;4.05;0.60;;;;;;;21.49;40.54;101802.66;4431957;32;20681;-72
2021/11/19 03:03:15;;;;;;;6.78;0.90;;;;;;;21.75;40.16;101802.16;4432381;32;20033;-72
2021/11/19 03:05:41;;;;;;;2.28;0.60;;;;;;;21.11;41.08;101802.56;4431863;32;20102;-72
2021/11/19 03:08:08;;;;;;;3.60;0.75;;;;;;;21.57;40.36;101812.44;4419266;32;20080;-72
2021/11/19 03:10:40;;;;;;;2.75;0.60;;;;;;;21.29;40.80;101808.19;4435327;32;20056;-72
2021/11/19 03:13:07;;;;;;;3.20;0.62;;;;;;;21.57;40.45;101806.72;4434923;32;20053;-72
2021/11/19 03:15:38;;;;;;;2.80;0.50;;;;;;;21.84;39.79;101805.72;4431111;32;20093;-72
2021/11/19 03:18:06;;;;;;;2.05;0.57;;;;;;;22.10;39.50;101811.69;4430782;32;20053;-72
2021/11/19 03:20:33;;;;;;;3.40;0.40;;;;;;;21.98;39.50;101822.16;4431037;32;20093;-71
2021/11/19 03:22:59;;;;;;;5.10;0.65;;;;;;;21.32;40.98;101812.13;4431680;32;20781;-71
2021/11/19 03:25:30;;;;;;;2.87;0.60;;;;;;;21.55;40.32;101808.50;4433091;32;20045;-71
2021/11/19 03:27:57;;;;;;;3.83;0.90;;;;;;;21.56;40.45;101808.00;4435542;32;20331;-71
2021/11/19 03:30:26;;;;;;;2.58;0.40;;;;;;;21.47;40.47;101804.41;4432008;32;20033;-71
2021/11/19 03:32:52;;;;;;;0.80;0.20;;;;;;;21.63;40.26;101816.22;4430820;32;20045;-71
2021/11/19 03:35:20;;;;;;;2.80;0.50;;;;;;;21.37;40.59;101800.03;4433587;32;20087;-72
2021/11/19 03:37:48;;;;;;;3.35;0.47;;;;;;;21.68;39.95;101797.56;4432054;32;20114;-72
2021/11/19 03:40:18;;;;;;;5.57;0.57;;;;;;;21.36;40.67;101790.63;4433761;32;20832;-72
2021/11/19 03:42:45;;;;;;;4.07;0.80;;;;;;;21.65;39.94;101795.66;4430746;32;20439;-71
2021/11/19 03:45:15;;;;;;;1.80;0.50;;;;;;;21.29;40.62;101798.78;4425639;32;20034;-72
2021/11/19 03:47:47;;;;;;;3.50;0.47;;;;;;;21.82;39.68;101784.56;4421584;32;20430;-71
2021/11/19 03:50:19;;;;;;;5.20;0.80;;;;;;;21.49;40.21;101788.34;4420516;32;20119;-72
2021/11/19 03:52:46;;;;;;;2.67;0.70;;;;;;;21.54;40.27;101790.50;4420439;32;20034;-72
2021/11/19 03:55:17;;;;;;;2.30;0.52;;;;;;;21.38;40.38;101801.59;4422722;32;20041;-72
2021/11/19 03:57:44;;;;;;;3.70;0.37;;;;;;;21.42;40.52;101800.13;4419896;32;20191;-71
2021/11/19 04:00:15;;;;;;;3.30;0.90;;;;;;;21.31;40.64;101810.56;4422717;32;20097;-71
2021/11/19 04:02:42;;;;;;;4.53;0.65;;;;;;;21.68;40.17;101800.41;4422929;32;20096;-71
2021/11/19 04:05:08;;;;;;;4.07;0.68;;;;;;;21.26;40.93;101809.16;4424791;32;20576;-72
2021/11/19 04:07:34;;;;;;;4.03;0.60;;;;;;;21.42;40.53;101810.81;4420116;32;20108;-72
2021/11/19 04:10:00;;;;;;;2.17;0.47;;;;;;;21.53;40.42;101808.97;4421439;32;20124;-71
2021/11/19 04:12:25;;;;;;;2.65;0.60;;;;;;;21.44;40.63;101823.37;4421804;32;20278;-71
2021/11/19 04:14:51;;;;;;;2.67;0.62;;;;;;;21.25;40.92;101807.59;4423457;32;20065;-72
2021/11/19 04:17:19;;;;;;;3.83;0.60;;;;;;;21.53;40.58;101808.16;4419529;32;20137;-72
2021/11/19 04:19:46;;;;;;;3.12;0.70;;;;;;;21.21;41.41;101817.63;4418069;32;20077;-71
2021/11/19 04:22:15;;;;;;;2.80;0.70;;;;;;;21.19;41.48;101803.00;4418697;32;20061;-71
2021/11/19 04:24:47;;;;;;;2.95;0.70;;;;;;;21.37;41.27;101809.41;4419716;32;20112;-71
2021/11/19 04:27:15;;;;;;;3.22;0.70;;;;;;;21.00;42.00;101813.78;4420815;32;20049;-71
2021/11/19 04:29:41;;;;;;;3.58;0.65;;;;;;;21.24;41.64;101811.75;4422941;32;20125;-71
2021/11/19 04:32:09;;;;;;;5.37;0.90;;;;;;;21.20;41.40;101802.53;4420638;32;20050;-72
2021/11/19 04:34:35;;;;;;;2.35;0.70;;;;;;;21.10;41.45;101803.84;4421176;32;20084;-71
2021/11/19 04:37:01;;;;;;;2.05;0.65;;;;;;;20.76;42.21;101810.06;4421875;32;20472;-71
2021/11/19 04:39:27;;;;;;;3.37;1.05;;;;;;;20.84;42.09;101814.16;4420839;32;20046;-71
2021/11/19 04:41:53;;;;;;;4.62;1.12;;;;;;;20.34;43.22;101812.09;4422457;32;20026;-72
2021/11/19 04:44:20;;;;;;;1.67;0.77;;;;;;;20.45;43.03;101812.41;4422953;32;20073;-71
2021/11/19 04:46:47;;;;;;;4.40;0.70;;;;;;;20.67;42.61;101818.66;4421556;32;20099;-71
2021/11/19 04:49:14;;;;;;;3.15;0.90;;;;;;;21.02;41.73;101821.88;4420750;32;20061;-71
2021/11/19 04:51:42;;;;;;;2.78;0.88;;;;;;;20.64;42.55;101822.50;4419272;32;20146;-71
2021/11/19 04:54:10;;;;;;;3.53;1.00;;;;;;;20.75;42.50;101817.06;4421066;32;20500;-71
2021/11/19 04:56:38;;;;;;;3.72;0.85;;;;;;;20.85;42.07;101817.78;4422449;32;20066;-72
2021/11/19 04:59:05;;;;;;;2.75;0.68;;;;;;;20.81;42.37;101811.47;4418319;32;20131;-71
2021/11/19 05:01:40;;;;;;;3.05;0.90;;;;;;;20.71;42.61;101815.66;4418718;32;20563;-71
2021/11/19 05:04:07;;;;;;;2.87;0.80;;;;;;;20.63;43.06;101811.53;4419509;32;20068;-71
2021/11/19 05:06:34;;;;;;;2.20;0.90;;;;;;;20.56;43.40;101818.38;4407509;32;20462;-72
2021/11/19 05:09:00;;;;;;;1.85;0.80;;;;;;;20.04;44.56;101815.16;4422009;32;20077;-72
2021/11/19 05:11:32;;;;;;;3.92;1.12;;;;;;;20.55;43.40;101808.22;4421544;32;20034;-72
2021/11/19 05:13:59;;;;;;;3.58;1.33;;;;;;;20.68;43.28;101813.75;4419535;32;20069;-71
2021/11/19 05:16:25;;;;;;;4.32;0.70;;;;;;;20.61;43.24;101811.22;4425592;32;20069;-72
2021/11/19 05:18:51;;;;;;;6.25;0.90;;;;;;;20.46;43.50;101822.56;4423527;32;20359;-72
2021/11/19 05:21:19;;;;;;;4.85;0.85;;;;;;;20.25;44.10;101825.63;4420375;32;20154;-71
2021/11/19 05:23:46;;;;;;;2.65;0.70;;;;;;;20.67;43.40;101821.53;4423353;32;20092;-71
2021/11/19 05:26:12;;;;;;;1.65;0.90;;;;;;;20.40;43.71;101823.69;4421221;32;20073;-71
2021/11/19 05:28:39;;;;;;;2.30;0.90;;;;;;;20.45;43.30;101834.47;4422019;32;20079;-71
2021/11/19 05:31:06;;;;;;;2.72;1.05;;;;;;;20.50;43.27;101822.38;4419324;32;20098;-71
2021/11/19 05:33:33;;;;;;;1.75;0.70;;;;;;;20.64;42.96;101825.34;4419644;32;20073;-71
2021/11/19 05:36:00;;;;;;;3.28;0.80;;;;;;;20.69;43.07;101823.91;4424428;32;20041;-71
2021/11/19 05:38:27;;;;;;;4.03;1.10;;;;;;;20.60;43.29;101827.59;4423459;32;20050;-71
2021/11/19 05:40:54;;;;;;;6.05;0.70;;;;;;;20.67;43.13;101835.84;4420823;32;20069;-71
2021/11/19 05:43:19;;;;;;;5.20;1.02;;;;;;;21.02;42.52;101834.09;4419696;32;20169;-71
2021/11/19 05:45:45;;;;;;;4.05;0.68;;;;;;;20.73;42.95;101833.91;4418060;32;20525;-71
2021/11/19 05:48:11;;;;;;;1.52;0.80;;;;;;;20.77;43.00;101828.03;4420494;32;20403;-71
2021/11/19 05:50:40;;;;;;;3.12;0.70;;;;;;;20.78;42.88;101835.31;4417712;32;20529;-71
2021/11/19 05:53:08;;;;;;;2.60;0.70;;;;;;;21.05;42.66;101843.81;4418718;32;20050;-71
2021/11/19 05:55:38;;;;;;;3.47;0.98;;;;;;;21.14;42.42;101841.69;4421626;32;20532;-71
2021/11/19 05:58:05;;;;;;;3.78;0.80;;;;;;;21.18;42.38;101845.19;4407317;32;20333;-71
2021/11/19 06:00:37;;;;;;;2.22;0.88;;;;;;;20.83;42.97;101844.03;4419266;32;20037;-72
2021/11/19 06:03:03;;;;;;;2.45;1.02;;;;;;;20.81;43.41;101834.34;4418188;32;20116;-71
2021/11/19 06:05:29;;;;;;;4.82;0.70;;;;;;;20.91;42.75;101839.56;4421843;32;20382;-71
2021/11/19 06:07:55;;;;;;;3.90;1.35;;;;;;;21.10;42.74;101837.41;4422287;32;20084;-71
2021/11/19 06:10:25;;;;;;;7.90;1.05;;;;;;;21.23;42.48;101852.31;4419876;32;20152;-71
2021/11/19 06:12:55;;;;;;;5.72;1.25;;;;;;;21.15;42.70;101849.00;4422883;32;20402;-71
2021/11/19 06:15:24;;;;;;;6.00;1.58;;;;;;;21.60;42.12;101850.78;4420992;32;20077;-71
2021/11/19 06:18:02;;;;;;;5.05;1.08;;;;;;;21.32;42.62;101855.91;4420749;32;20029;-71
2021/11/19 06:20:40;;;;;;;3.12;1.10;;;;;;;21.58;42.14;101859.88;4419640;32;20078;-71
2021/11/19 06:23:19;;;;;;;2.80;1.10;;;;;;;21.47;42.62;101864.53;4420667;32;20402;-71
2021/11/19 06:25:47;;;;;;;6.40;0.90;;;;;;;21.65;41.85;101868.09;4417701;32;20456;-71
2021/11/19 06:28:19;;;;;;;2.20;1.17;;;;;;;21.44;42.74;101869.19;4419861;32;20104;-71
2021/11/19 06:30:45;;;;;;;6.97;1.08;;;;;;;21.51;42.44;101877.41;4419632;32;20159;-71
2021/11/19 06:33:11;;;;;;;3.55;1.10;;;;;;;21.38;42.49;101878.94;4418359;32;20106;-71
2021/11/19 06:35:37;;;;;;;2.78;1.00;;;;;;;21.37;42.46;101863.03;4415531;32;20093;-71
2021/11/19 06:38:03;;;;;;;3.78;0.90;;;;;;;21.00;43.27;101871.03;4420751;32;20068;-71
2021/11/19 06:40:32;;;;;;;3.50;0.70;;;;;;;21.36;42.59;101876.53;4421481;32;20025;-71
2021/11/19 06:42:57;;;;;;;3.53;1.20;;;;;;;21.57;42.13;101886.16;4422202;32;20037;-71
2021/11/19 06:45:26;;;;;;;3.37;1.10;;;;;;;21.50;42.09;101880.75;4421008;32;20049;-72
2021/11/19 06:47:52;;;;;;;3.67;1.00;;;;;;;21.73;41.84;101882.03;4422702;32;20045;-71
2021/11/19 06:50:21;;;;;;;3.42;0.90;;;;;;;21.38;42.34;101879.72;4418669;32;20073;-71
2021/11/19 06:52:47;;;;;;;4.03;1.08;;;;;;;21.61;42.00;101890.41;4417816;32;20065;-71
2021/11/19 06:55:14;;;;;;;2.17;1.00;;;;;;;21.16;42.56;101892.72;4422446;32;20414;-71
2021/11/19 06:57:41;;;;;;;3.87;1.10;;;;;;;21.58;42.05;101893.44;4417206;32;20073;-71
2021/11/19 07:00:10;;;;;;;2.90;0.95;;;;;;;21.62;41.90;101906.31;4415836;32;20471;-71
2021/11/19 07:02:36;;;;;;;1.87;0.68;;;;;;;21.71;41.82;101908.31;4420814;32;20025;-71
2021/11/19 07:05:03;;;;;;;8.35;2.35;;;;;;;21.64;41.94;101903.75;4418605;32;20768;-71
2021/11/19 07:07:29;;;;;;;3.65;1.02;;;;;;;21.78;41.69;101898.59;4417909;32;20033;-71
2021/11/19 07:09:54;;;;;;;5.97;1.37;;;;;;;21.75;41.66;101902.44;4420224;32;20102;-71
2021/11/19 07:12:20;;;;;;;7.40;1.30;;;;;;;21.40;42.41;101914.41;4419187;32;20089;-71
2021/11/19 07:14:46;;;;;;;6.20;1.50;;;;;;;21.30;42.62;101914.94;4420400;32;20102;-71
2021/11/19 07:17:12;;;;;;;3.62;1.00;;;;;;;21.33;42.68;101917.59;4419003;32;20143;-71
2021/11/19 07:19:40;;;;;;;3.28;1.10;;;;;;;21.20;42.90;101916.28;4420117;32;20050;-71
2021/11/19 07:22:07;;;;;;;2.58;0.95;;;;;;;21.24;43.20;101923.41;4421146;32;20521;-71
2021/11/19 07:24:35;;;;;;;4.03;1.23;;;;;;;20.99;43.54;101929.53;4421316;32;20120;-71
2021/11/19 07:27:03;;;;;;;5.10;1.50;;;;;;;21.17;43.23;101929.47;4423773;32;20121;-72
2021/11/19 07:29:29;;;;;;;5.15;1.80;;;;;;;21.17;43.27;101925.81;4421927;32;20161;-72
2021/11/19 07:31:55;;;;;;;4.07;1.23;;;;;;;21.19;43.24;101926.91;4419883;32;20102;-72
2021/11/19 07:34:20;;;;;;;3.42;1.00;;;;;;;20.99;43.55;101928.75;4422601;32;20030;-72
2021/11/19 07:36:48;;;;;;;11.50;2.05;;;;;;;21.03;43.70;101924.44;4421880;32;20041;-72
2021/11/19 07:39:13;;;;;;;4.93;1.67;;;;;;;21.05;43.44;101924.75;4417048;32;20097;-72
2021/11/19 07:41:39;;;;;;;8.07;1.48;;;;;;;21.20;43.11;101934.22;4408503;32;20107;-72
2021/11/19 07:44:06;;;;;;;2.92;1.00;;;;;;;21.07;43.45;101929.97;4415621;32;20105;-72
2021/11/19 07:46:32;;;;;;;3.30;1.08;;;;;;;21.09;43.43;101933.16;4418224;32;20095;-72
2021/11/19 07:48:59;;;;;;;4.68;1.40;;;;;;;21.24;42.98;101937.72;4418038;32;20375;-72
2021/11/19 07:51:28;;;;;;;2.40;1.00;;;;;;;21.51;42.55;101949.03;4413218;32;20104;-72
2021/11/19 07:53:55;;;;;;;2.75;0.93;;;;;;;21.40;42.93;101948.78;4418174;32;20052;-72
2021/11/19 07:56:29;;;;;;;4.95;1.27;;;;;;;21.32;42.92;101950.41;4410977;32;20123;-72
2021/11/19 07:59:00;;;;;;;3.78;1.55;;;;;;;21.67;42.49;101954.34;4411808;32;20122;-72
2021/11/19 08:01:27;;;;;;;5.45;1.37;;;;;;;21.59;42.47;101953.13;4411591;32;20122;-73
2021/11/19 08:03:53;;;;;;;3.83;1.30;;;;;;;21.97;41.76;101960.25;4409518;32;20120;-72
2021/11/19 08:06:22;;;;;;;4.65;1.10;;;;;;;21.86;42.02;101952.19;4414252;32;20097;-72
2021/11/19 08:08:49;;;;;;;8.30;1.52;;;;;;;22.36;41.37;101965.50;4406741;32;20073;-72
2021/11/19 08:11:15;;;;;;;5.12;1.80;;;;;;;22.17;41.56;101963.28;4401108;32;20066;-72
2021/11/19 08:13:42;;;;;;;8.32;2.42;;;;;;;22.31;41.33;101969.06;4409939;32;21130;-72
2021/11/19 08:16:07;;;;;;;4.82;1.48;;;;;;;22.36;41.20;101968.38;4411147;32;20419;-72
2021/11/19 08:18:43;;;;;;;4.45;2.28;;;;;;;22.20;41.43;101976.63;4413738;32;20120;-72
2021/11/19 08:21:09;;;;;;;10.07;2.50;;;;;;;22.50;41.11;101979.13;4413337;32;20474;-72
2021/11/19 08:23:39;;;;;;;4.28;1.40;;;;;;;22.53;41.00;101966.66;4397897;32;20075;-72
2021/11/19 08:26:19;;;;;;;5.47;2.08;;;;;;;21.97;41.96;101977.44;4409218;32;20458;-72
2021/11/19 08:28:45;;;;;;;7.93;1.98;;;;;;;22.66;41.04;101980.72;4408755;32;20151;-72
2021/11/19 08:31:14;;;;;;;8.02;1.80;;;;;;;22.20;42.02;101985.22;4411719;32;20506;-72
2021/11/19 08:33:42;;;;;;;9.32;2.00;;;;;;;22.54;41.41;101990.38;4411221;32;20115;-72
2021/11/19 08:36:09;;;;;;;3.75;2.00;;;;;;;22.84;40.85;101986.28;4411313;32;20080;-72
2021/11/19 08:38:35;;;;;;;6.15;2.12;;;;;;;22.87;40.66;101996.78;4411106;32;20547;-72
2021/11/19 08:41:03;;;;;;;4.30;2.40;;;;;;;22.55;40.67;102000.59;4410676;32;20205;-72
2021/11/19 08:43:37;;;;;;;4.50;2.45;;;;;;;23.01;40.38;102002.53;4412426;32;20037;-72
2021/11/19 08:46:07;;;;;;;3.47;2.50;;;;;;;23.00;40.39;102003.81;4397712;32;20295;-72
2021/11/19 08:48:35;;;;;;;3.30;2.40;;;;;;;22.78;40.51;101994.78;4410346;32;20425;-71
2021/11/19 08:51:04;;;;;;;5.47;2.95;;;;;;;22.83;40.62;102004.81;4410564;32;20442;-71
2021/11/19 08:53:30;;;;;;;5.65;3.25;;;;;;;22.92;40.36;102005.47;4412984;32;20127;-72
2021/11/19 08:55:58;;;;;;;6.37;3.08;;;;;;;22.83;40.49;102013.41;4400610;32;20119;-71
2021/11/19 08:58:28;;;;;;;7.75;3.17;;;;;;;23.24;39.81;102021.78;4412628;32;20077;-72
2021/11/19 09:00:57;;;;;;;7.35;3.30;;;;;;;23.16;39.96;102016.87;4411989;32;20318;-71
2021/11/19 09:03:25;;;;;;;7.32;2.90;;;;;;;23.07;39.75;102025.63;4410922;32;20128;-70
2021/11/19 09:05:51;;;;;;;8.23;3.37;;;;;;;23.18;39.77;102020.84;4411974;32;20679;-70
2021/11/19 09:08:21;;;;;;;6.10;3.40;;;;;;;23.39;38.98;102025.44;4410711;32;20137;-70
2021/11/19 09:10:51;;;;;;;17.80;4.37;;;;;;;23.61;38.94;102024.97;4407956;32;20400;-69
2021/11/19 09:13:17;;;;;;;8.98;4.60;;;;;;;23.57;38.80;102012.91;4410634;32;20089;-70
2021/11/19 09:15:43;;;;;;;10.25;5.10;;;;;;;22.91;39.99;102006.78;4415134;32;20146;-71
2021/11/19 09:21:27;;;;;;;8.25;4.32;;;;;;;23.24;39.41;102026.72;3971337;32;15023075;-70
2021/11/19 09:26:36;;;;;;;6.57;4.60;;;;;;;23.67;38.64;102025.88;3973259;32;15022725;-71
2021/11/19 09:29:07;;;;;;;5.70;3.37;;;;;;;23.67;38.64;102025.88;4427439;32;20159;-71
2021/11/19 09:31:33;;;;;;;8.25;3.20;;;;;;;23.45;38.69;102026.31;4421825;32;20046;-71
2021/11/19 09:33:59;;;;;;;5.15;2.92;;;;;;;23.50;38.45;102022.72;4423835;32;21096;-71
2021/11/19 09:36:25;;;;;;;5.62;2.90;;;;;;;23.91;37.60;102026.50;4425689;32;21260;-71
2021/11/19 09:38:51;;;;;;;3.97;2.42;;;;;;;24.09;36.97;102040.66;4422086;32;20068;-71
2021/11/19 09:50:09;;;;;;;2.50;1.80;;;;;;;24.35;36.35;102023.44;3972031;32;15032944;-69
2021/11/19 09:56:10;;;;;;;3.28;1.40;;;;;;;23.83;37.33;102027.44;3974610;32;15023061;-69
2021/11/19 09:59:06;;;;;;;2.85;1.40;;;;;;;23.83;37.33;102027.44;4431564;32;20044;-69
2021/11/19 10:12:51;;;;;;;0.90;0.73;;;;;;;24.46;35.58;102026.47;3979485;32;15021111;-70
2021/11/19 10:15:23;;;;;;;3.25;1.20;;;;;;;23.93;36.63;102029.66;4426693;32;20045;-71
2021/11/19 10:18:02;;;;;;;1.50;0.82;;;;;;;24.02;36.62;102023.03;4424475;32;21291;-70
2021/11/19 10:20:53;;;;;;;1.73;1.20;;;;;;;23.51;37.32;102027.16;4427411;32;20176;-70
2021/11/19 10:26:15;;;;;;;1.73;0.65;;;;;;;23.87;37.17;102025.12;3977294;32;15024016;-71
2021/11/19 10:28:46;;;;;;;1.25;0.60;;;;;;;23.87;37.17;102025.12;4427116;32;20207;-71
2021/11/19 10:31:17;;;;;;;3.75;0.95;;;;;;;23.42;37.63;102033.06;4428788;32;20093;-72
2021/11/19 10:33:59;;;;;;;2.22;1.00;;;;;;;23.74;37.39;102025.44;4426487;32;20026;-69
2021/11/19 10:36:38;;;;;;;3.25;1.30;;;;;;;24.01;36.93;102036.59;4428613;32;20674;-68
2021/11/19 10:45:25;;;;;;;2.37;0.60;;;;;;;24.19;36.08;102042.09;3972865;32;15043563;-70
2021/11/19 10:51:19;;;;;;;6.20;0.80;;;;;;;24.46;35.57;102038.78;3970643;32;15021946;-70
2021/11/19 11:04:57;;;;;;;4.75;1.55;;;;;;;25.39;34.00;102049.78;3969234;32;15024921;-70
2021/11/19 11:07:33;;;;;;;5.60;1.52;;;;;;;25.39;34.00;102049.78;4421000;32;20098;-70
2021/11/19 11:18:12;;;;;;;3.97;0.73;;;;;;;24.72;34.77;102045.41;3966405;32;15052798;-71
2021/11/19 11:34:29;;;;;;;1.40;0.65;;;;;;;25.21;34.05;102036.50;3994160;31;15019084;-69
2021/11/19 11:37:25;;;;;;;5.05;0.85;;;;;;;25.21;34.05;102036.50;4447155;32;20104;-69
2021/11/19 11:42:47;;;;;;;2.28;0.55;;;;;;;25.70;33.21;102040.31;3972000;32;15021605;-70
2021/11/19 11:45:39;;;;;;;4.25;0.80;;;;;;;25.34;33.44;102034.03;4420126;32;20046;-70
2021/11/19 11:53:24;;;;;;;1.58;0.62;;;;;;;25.96;32.66;102036.06;3973566;32;15024082;-70
2021/11/19 12:04:05;;;;;;;3.08;0.90;;;;;;;25.70;33.08;102044.00;3975314;32;15022508;-70
2021/11/19 12:06:37;;;;;;;2.75;0.52;;;;;;;25.70;33.08;102044.00;4431091;32;20068;-69
2021/11/19 12:12:33;;;;;;;2.25;0.73;;;;;;;25.43;33.40;102061.09;3970529;32;15040530;-70
2021/11/19 12:26:25;;;;;;;4.85;1.17;;;;;;;25.97;32.97;102033.97;3950973;32;15723643;-70
2021/11/19 12:29:02;;;;;;;1.92;1.00;;;;;;;25.97;32.97;102033.97;4429741;32;20050;-70
2021/11/19 12:34:18;;;;;;;6.63;1.00;;;;;;;27.19;30.90;102024.50;3931017;32;15771360;-71
2021/11/19 12:36:51;;;;;;;2.58;1.00;;;;;;;27.19;30.90;102024.50;4399856;32;20181;-71
2021/11/19 12:39:17;;;;;;;5.78;1.42;;;;;;;26.97;30.86;102018.69;4396853;32;20115;-70
2021/11/19 12:41:57;;;;;;;2.97;1.05;;;;;;;26.73;31.34;102015.47;4400181;32;20382;-69
2021/11/19 12:55:51;;;;;;;1.98;0.90;;;;;;;27.66;29.27;102013.97;3958727;32;15023234;-68
2021/11/19 12:58:29;;;;;;;2.23;0.93;;;;;;;27.49;29.60;102008.25;4398843;32;20115;-69
2021/11/19 13:27:44;;;;;;;4.22;1.42;;;;;;;28.41;28.96;101993.28;3973731;32;15031918;-69
2021/11/19 13:38:20;;;;;;;3.47;1.80;;;;;;;31.72;24.60;101989.56;3998166;31;15015469;-70
2021/11/19 13:40:52;;;;;;;2.92;1.00;;;;;;;31.72;24.60;101989.56;4450987;32;20374;-70
2021/11/19 13:56:43;;;;;;;2.97;1.15;;;;;;;28.10;29.59;101982.87;3974821;32;15025538;-69
2021/11/19 13:59:28;;;;;;;2.90;1.20;;;;;;;28.10;29.59;101982.87;4431486;32;20053;-68
2021/11/19 14:04:49;;;;;;;3.12;1.15;;;;;;;29.59;27.25;101996.44;3969353;32;15022575;-70
2021/11/19 14:10:06;;;;;;;4.10;1.30;;;;;;;27.98;29.61;101980.56;3974057;32;15023318;-69
2021/11/19 14:15:37;;;;;;;2.80;1.10;;;;;;;27.77;29.74;101974.28;3976942;32;15025406;-68
2021/11/19 14:26:41;;;;;;;3.12;1.20;;;;;;;29.80;27.31;101973.56;3947970;32;15724422;-69
2021/11/19 14:29:18;;;;;;;3.33;1.50;;;;;;;29.80;27.31;101973.56;4426376;32;20041;-69
2021/11/19 14:31:50;;;;;;;3.53;1.30;;;;;;;29.56;27.20;101997.50;4420957;32;20021;-69
2021/11/19 14:34:18;;;;;;;7.65;1.60;;;;;;;28.45;28.74;101988.81;4426740;32;20061;-69
2021/11/19 14:36:54;;;;;;;5.03;1.83;;;;;;;27.66;30.06;101990.84;4424365;32;20650;-68
2021/11/19 14:39:27;;;;;;;2.78;1.62;;;;;;;27.07;30.96;101985.34;4427136;32;20096;-70
2021/11/19 14:42:13;;;;;;;4.78;2.12;;;;;;;27.16;30.96;101973.50;4420611;32;20069;-69